createdAt,value
2023-04-04T00:01:12.873Z,1.07
2023-04-04T00:03:42.799Z,1.57
2023-04-04T00:06:11.670Z,0.93
2023-04-04T00:08:40.071Z,1.23
2023-04-04T00:11:10.147Z,1.30
2023-04-04T00:13:40.064Z,1.10
2023-04-04T00:16:09.114Z,1.10
2023-04-04T00:18:37.788Z,1.10
2023-04-04T00:21:06.672Z,0.80
2023-04-04T00:23:37.264Z,1.20
2023-04-04T00:26:07.390Z,1.30
2023-04-04T00:28:37.817Z,1.00
2023-04-04T00:31:06.856Z,0.87
2023-04-04T00:33:36.019Z,0.83
2023-04-04T00:36:04.901Z,1.03
2023-04-04T00:38:33.968Z,1.10
2023-04-04T00:41:02.871Z,1.47
2023-04-04T00:43:32.873Z,1.00
2023-04-04T00:46:03.019Z,0.90
2023-04-04T00:48:32.469Z,1.10
2023-04-04T00:51:00.832Z,1.47
2023-04-04T00:53:29.578Z,1.00
2023-04-04T00:55:58.489Z,1.00
2023-04-04T00:58:27.908Z,1.07
2023-04-04T01:00:56.654Z,1.10
2023-04-04T01:03:26.958Z,0.80
2023-04-04T01:05:56.500Z,1.13
2023-04-04T01:08:28.135Z,1.00
2023-04-04T01:10:56.941Z,1.20
2023-04-04T01:13:28.833Z,1.03
2023-04-04T01:15:57.723Z,1.03
2023-04-04T01:18:30.316Z,1.17
2023-04-04T01:21:02.578Z,1.00
2023-04-04T01:23:43.006Z,1.17
2023-04-04T01:26:15.012Z,0.97
2023-04-04T01:28:43.794Z,1.00
2023-04-04T01:31:17.853Z,1.20
2023-04-04T01:33:56.267Z,1.00
2023-04-04T01:36:32.282Z,1.03
2023-04-04T01:39:11.765Z,1.80
2023-04-04T01:41:46.284Z,1.00
2023-04-04T01:44:15.972Z,1.17
2023-04-04T01:46:46.636Z,0.83
2023-04-04T01:49:16.865Z,1.00
2023-04-04T01:51:47.388Z,1.10
2023-04-04T01:54:19.158Z,1.20
2023-04-04T01:56:50.435Z,1.10
2023-04-04T01:59:19.613Z,0.90
2023-04-04T02:01:48.671Z,1.30
2023-04-04T02:04:17.292Z,1.43
2023-04-04T02:06:45.853Z,0.93
2023-04-04T02:09:15.456Z,1.60
2023-04-04T02:11:44.793Z,1.00
2023-04-04T02:14:15.313Z,0.90
2023-04-04T02:16:44.186Z,1.20
2023-04-04T02:19:13.366Z,1.10
2023-04-04T02:21:44.426Z,1.20
2023-04-04T02:24:17.119Z,1.00
2023-04-04T02:26:45.956Z,1.07
2023-04-04T02:29:19.736Z,1.17
2023-04-04T02:31:49.899Z,1.17
2023-04-04T02:34:19.344Z,1.20
2023-04-04T02:36:50.759Z,1.07
2023-04-04T02:39:20.803Z,1.17
2023-04-04T02:41:53.788Z,1.30
2023-04-04T02:44:24.093Z,1.10
2023-04-04T02:46:55.918Z,1.13
2023-04-04T02:49:33.115Z,1.03
2023-04-04T02:52:02.905Z,1.20
2023-04-04T02:54:36.877Z,1.13
2023-04-04T02:57:10.354Z,0.93
2023-04-04T02:59:40.814Z,1.20
2023-04-04T03:02:14.795Z,1.20
2023-04-04T03:04:43.936Z,1.30
2023-04-04T03:07:16.654Z,0.93
2023-04-04T03:09:46.958Z,0.93
2023-04-04T03:12:16.453Z,1.17
2023-04-04T03:14:47.342Z,0.93
2023-04-04T03:17:18.673Z,1.13
2023-04-04T03:19:49.174Z,1.20
2023-04-04T03:22:18.737Z,1.03
2023-04-04T03:24:49.949Z,1.20
2023-04-04T03:27:19.097Z,1.23
2023-04-04T03:29:49.172Z,1.10
2023-04-04T03:32:20.416Z,0.90
2023-04-04T03:34:49.619Z,1.23
2023-04-04T03:37:18.032Z,1.50
2023-04-04T03:39:47.121Z,1.10
2023-04-04T03:42:15.967Z,1.40
2023-04-04T03:44:44.776Z,1.00
2023-04-04T03:47:22.022Z,1.03
2023-04-04T03:49:51.870Z,0.97
2023-04-04T03:52:20.738Z,1.10
2023-04-04T03:54:50.867Z,1.30
2023-04-04T03:57:20.196Z,1.30
2023-04-04T03:59:48.746Z,1.00
2023-04-04T04:02:19.656Z,1.40
2023-04-04T04:04:51.006Z,1.30
2023-04-04T04:07:19.989Z,1.20
2023-04-04T04:09:49.141Z,1.00
2023-04-04T04:12:19.140Z,1.47
2023-04-04T04:14:48.613Z,1.13
2023-04-04T04:17:18.104Z,2.10
2023-04-04T04:19:47.413Z,1.43
2023-04-04T04:22:20.415Z,1.40
2023-04-04T04:24:49.033Z,1.20
2023-04-04T04:27:17.923Z,1.20
2023-04-04T04:29:46.977Z,1.17
2023-04-04T04:32:17.800Z,1.20
2023-04-04T04:34:51.948Z,1.10
2023-04-04T04:37:27.842Z,1.10
2023-04-04T04:39:58.847Z,1.40
2023-04-04T04:42:39.044Z,1.30
2023-04-04T04:45:08.918Z,1.23
2023-04-04T04:47:42.160Z,1.40
2023-04-04T04:50:13.784Z,1.40
2023-04-04T04:52:47.643Z,1.10
2023-04-04T04:55:16.199Z,1.60
2023-04-04T04:57:49.822Z,1.47
2023-04-04T05:00:24.748Z,1.33
2023-04-04T05:02:56.983Z,1.50
2023-04-04T05:05:43.967Z,1.20
2023-04-04T05:08:17.349Z,1.30
2023-04-04T05:11:06.553Z,1.23
2023-04-04T05:13:38.310Z,1.40
2023-04-04T05:16:08.004Z,1.50
2023-04-04T05:18:39.048Z,1.47
2023-04-04T05:21:11.928Z,1.57
2023-04-04T05:23:42.646Z,1.93
2023-04-04T05:26:11.527Z,1.50
2023-04-04T05:28:41.626Z,1.43
2023-04-04T05:31:12.259Z,1.40
2023-04-04T05:33:43.486Z,1.63
2023-04-04T05:36:17.113Z,1.33
2023-04-04T05:38:53.269Z,1.63
2023-04-04T05:41:24.936Z,1.60
2023-04-04T05:43:58.449Z,1.47
2023-04-04T05:46:27.278Z,1.93
2023-04-04T05:48:59.455Z,1.40
2023-04-04T05:51:31.693Z,1.30
2023-04-04T05:54:13.817Z,1.50
2023-04-04T05:56:42.888Z,1.50
2023-04-04T05:59:30.392Z,1.50
2023-04-04T06:02:04.196Z,1.97
2023-04-04T06:04:35.319Z,1.30
2023-04-04T06:07:06.555Z,1.70
2023-04-04T06:09:36.387Z,1.50
2023-04-04T06:12:05.364Z,1.40
2023-04-04T06:14:36.096Z,1.50
2023-04-04T06:17:08.290Z,1.63
2023-04-04T06:19:37.224Z,1.90
2023-04-04T06:22:06.182Z,1.73
2023-04-04T06:24:40.046Z,1.97
2023-04-04T06:27:09.975Z,2.13
2023-04-04T06:29:41.169Z,1.77
2023-04-04T06:32:13.261Z,2.03
2023-04-04T06:34:45.440Z,1.60
2023-04-04T06:37:16.311Z,1.47
2023-04-04T06:39:56.311Z,1.57
2023-04-04T06:42:29.192Z,2.00
2023-04-04T06:45:01.663Z,1.90
2023-04-04T06:47:34.181Z,1.47
2023-04-04T06:50:10.819Z,1.50
2023-04-04T06:52:46.380Z,1.60
2023-04-04T06:55:18.067Z,1.33
2023-04-04T06:57:47.276Z,1.70
2023-04-04T07:00:21.667Z,1.87
2023-04-04T07:03:01.701Z,1.70
2023-04-04T07:05:36.044Z,1.77
2023-04-04T07:08:10.558Z,1.60
2023-04-04T07:10:47.037Z,1.80
2023-04-04T07:13:22.561Z,1.63
2023-04-04T07:15:57.226Z,2.17
2023-04-04T07:18:30.713Z,1.50
2023-04-04T07:21:06.342Z,1.40
2023-04-04T07:23:43.353Z,2.00
2023-04-04T07:26:15.148Z,1.50
2023-04-04T07:28:46.054Z,1.63
2023-04-04T07:31:18.150Z,2.07
2023-04-04T07:33:47.124Z,1.70
2023-04-04T07:36:16.665Z,1.40
2023-04-04T07:38:46.439Z,1.90
2023-04-04T07:41:23.547Z,1.50
2023-04-04T07:43:52.859Z,1.30
2023-04-04T07:46:23.753Z,1.63
2023-04-04T07:48:56.763Z,1.30
2023-04-04T07:51:33.224Z,1.77
2023-04-04T07:54:08.630Z,1.50
2023-04-04T07:56:45.514Z,1.37
2023-04-04T07:59:19.923Z,1.33
2023-04-04T08:01:52.789Z,1.20
2023-04-04T08:04:21.708Z,1.37
2023-04-04T08:06:50.648Z,1.40
2023-04-04T08:09:18.929Z,1.50
2023-04-04T08:11:51.418Z,1.60
2023-04-04T08:14:20.829Z,1.80
2023-04-04T08:16:49.602Z,1.53
2023-04-04T08:19:18.584Z,1.57
2023-04-04T08:21:47.210Z,1.40
2023-04-04T08:24:16.463Z,1.67
2023-04-04T08:26:49.293Z,1.60
2023-04-04T08:29:29.198Z,1.50
2023-04-04T08:31:57.831Z,1.70
2023-04-04T08:34:26.212Z,1.10
2023-04-04T08:36:55.232Z,1.50
2023-04-04T08:39:23.687Z,1.50
2023-04-04T08:41:58.235Z,1.77
2023-04-04T08:44:31.331Z,1.40
2023-04-04T08:47:01.633Z,1.60
2023-04-04T08:49:33.360Z,1.30
2023-04-04T08:52:08.940Z,1.70
2023-04-04T08:54:43.703Z,1.70
2023-04-04T08:57:12.555Z,1.70
2023-04-04T08:59:42.715Z,1.40
2023-04-04T09:02:23.614Z,1.43
2023-04-04T09:05:05.514Z,1.30
2023-04-04T09:07:39.255Z,1.80
2023-04-04T09:10:11.677Z,1.43
2023-04-04T09:12:43.714Z,1.40
2023-04-04T09:15:17.678Z,1.20
2023-04-04T09:17:46.378Z,1.27
2023-04-04T09:20:37.642Z,0.93
2023-04-04T09:23:12.822Z,1.30
2023-04-04T09:28:22.749Z,1.30
2023-04-04T09:30:53.837Z,1.40
2023-04-04T09:33:25.578Z,1.90
2023-04-04T09:35:57.329Z,1.37
2023-04-04T09:38:27.625Z,1.40
2023-04-04T09:40:58.008Z,1.40
2023-04-04T09:43:31.014Z,1.30
2023-04-04T09:46:02.359Z,1.50
2023-04-04T09:48:33.628Z,1.40
2023-04-04T09:51:09.466Z,1.93
2023-04-04T09:53:40.148Z,1.43
2023-04-04T09:56:10.298Z,1.50
2023-04-04T09:58:44.273Z,1.83
2023-04-04T10:01:19.611Z,1.50
2023-04-04T10:03:53.986Z,1.50
2023-04-04T10:06:24.177Z,1.13
2023-04-04T10:08:53.222Z,1.67
2023-04-04T10:11:33.392Z,1.23
2023-04-04T10:14:04.275Z,1.60
2023-04-04T10:16:38.180Z,1.50
2023-04-04T10:19:07.896Z,1.60
2023-04-04T10:21:37.487Z,1.57
2023-04-04T10:24:09.880Z,1.40
2023-04-04T10:26:39.128Z,1.70
2023-04-04T10:29:08.359Z,1.50
2023-04-04T10:31:43.979Z,1.30
2023-04-04T10:34:19.581Z,1.13
2023-04-04T10:36:52.754Z,1.43
2023-04-04T10:39:27.558Z,1.70
2023-04-04T10:41:57.859Z,1.43
2023-04-04T10:44:32.016Z,1.20
2023-04-04T10:47:10.643Z,1.37
2023-04-04T10:49:40.572Z,1.77
2023-04-04T10:52:10.884Z,1.33
2023-04-04T10:54:39.797Z,1.20
2023-04-04T10:57:09.333Z,1.50
2023-04-04T10:59:58.055Z,1.43
2023-04-04T11:02:50.419Z,1.20
2023-04-04T11:05:25.548Z,1.47
2023-04-04T11:10:32.416Z,1.20
2023-04-04T11:13:12.608Z,1.47
2023-04-04T11:15:55.182Z,1.60
2023-04-04T11:18:50.071Z,1.40
2023-04-04T11:21:20.425Z,1.50
2023-04-04T11:24:15.855Z,1.43
2023-04-04T11:26:46.381Z,1.40
2023-04-04T11:29:37.366Z,1.30
2023-04-04T11:32:26.308Z,1.63
2023-04-04T11:34:58.993Z,1.50
2023-04-04T11:37:29.612Z,1.53
2023-04-04T11:40:00.197Z,1.40
2023-04-04T11:42:38.416Z,1.67
2023-04-04T11:45:09.783Z,1.70
2023-04-04T11:47:42.262Z,1.40
2023-04-04T11:50:17.224Z,1.33
2023-04-04T11:52:47.250Z,1.60
2023-04-04T11:55:17.590Z,1.37
2023-04-04T11:57:47.694Z,1.50
2023-04-04T12:00:32.254Z,1.60
2023-04-04T12:03:03.028Z,1.50
2023-04-04T12:05:33.863Z,1.53
2023-04-04T12:08:03.556Z,1.50
2023-04-04T12:10:35.405Z,1.20
2023-04-04T12:13:07.248Z,1.50
2023-04-04T12:15:40.363Z,1.50
2023-04-04T12:18:11.005Z,1.43
2023-04-04T12:20:42.387Z,1.50
2023-04-04T12:23:14.417Z,1.60
2023-04-04T12:25:45.017Z,1.47
2023-04-04T12:28:14.111Z,1.20
2023-04-04T12:30:43.231Z,1.50
2023-04-04T12:33:14.645Z,1.50
2023-04-04T12:35:53.470Z,1.27
2023-04-04T12:38:22.286Z,1.30
2023-04-04T12:40:54.288Z,1.40
2023-04-04T12:43:23.430Z,1.40
2023-04-04T12:45:53.374Z,1.40
2023-04-04T12:48:29.328Z,1.37
2023-04-04T12:51:02.514Z,1.43
2023-04-04T12:53:33.326Z,1.50
2023-04-04T12:56:04.753Z,1.50
2023-04-04T12:58:37.739Z,1.63
2023-04-04T13:01:07.252Z,2.40
2023-04-04T13:03:38.207Z,1.90
2023-04-04T13:06:15.701Z,1.47
2023-04-04T13:08:52.121Z,1.40
2023-04-04T13:11:21.982Z,1.27
2023-04-04T13:14:00.814Z,1.40
2023-04-04T13:16:33.617Z,1.30
2023-04-04T13:19:02.999Z,1.67
2023-04-04T13:21:33.237Z,1.70
2023-04-04T13:24:05.297Z,1.80
2023-04-04T13:26:34.601Z,1.40
2023-04-04T13:29:03.269Z,1.43
2023-04-04T13:31:32.551Z,1.60
2023-04-04T13:34:01.703Z,1.27
2023-04-04T13:36:32.532Z,1.70
2023-04-04T13:39:02.847Z,1.30
2023-04-04T13:41:32.098Z,1.50
2023-04-04T13:44:01.236Z,1.63
2023-04-04T13:46:31.303Z,1.57
2023-04-04T13:48:59.832Z,1.63
2023-04-04T13:51:30.505Z,1.83
2023-04-04T13:54:00.951Z,1.33
2023-04-04T13:56:32.121Z,1.40
2023-04-04T13:59:00.844Z,1.40
2023-04-04T14:01:29.635Z,1.40
2023-04-04T14:03:59.136Z,1.33
2023-04-04T14:06:28.879Z,1.20
2023-04-04T14:08:58.711Z,1.47
2023-04-04T14:11:31.111Z,1.30
2023-04-04T14:14:01.150Z,1.43
2023-04-04T14:16:29.740Z,1.60
2023-04-04T14:18:58.604Z,1.40
2023-04-04T14:21:28.298Z,1.40
2023-04-04T14:23:58.154Z,1.50
2023-04-04T14:26:27.077Z,1.63
2023-04-04T14:28:57.119Z,1.93
2023-04-04T14:31:27.267Z,1.77
2023-04-04T14:33:55.977Z,1.53
2023-04-04T14:36:26.482Z,1.70
2023-04-04T14:38:55.443Z,1.43
2023-04-04T14:41:24.540Z,1.50
2023-04-04T14:43:53.859Z,1.87
2023-04-04T14:46:22.782Z,1.40
2023-04-04T14:48:53.284Z,1.57
2023-04-04T14:51:23.519Z,1.67
2023-04-04T14:53:52.654Z,1.47
2023-04-04T14:56:23.483Z,1.50
2023-04-04T14:58:52.356Z,1.63
2023-04-04T15:01:23.229Z,1.70
2023-04-04T15:03:54.268Z,1.40
2023-04-04T15:06:22.765Z,1.30
2023-04-04T15:08:52.320Z,1.57
2023-04-04T15:11:20.767Z,1.77
2023-04-04T15:13:49.473Z,1.60
2023-04-04T15:16:21.408Z,1.53
2023-04-04T15:18:50.812Z,1.50
2023-04-04T15:21:23.217Z,1.80
2023-04-04T15:23:52.867Z,1.50
2023-04-04T15:26:22.299Z,1.40
2023-04-04T15:28:51.736Z,1.37
2023-04-04T15:31:21.231Z,1.50
2023-04-04T15:33:49.862Z,1.30
2023-04-04T15:36:18.784Z,2.00
2023-04-04T15:38:51.631Z,1.90
2023-04-04T15:41:20.278Z,1.70
2023-04-04T15:43:48.940Z,1.63
2023-04-04T15:46:17.835Z,1.67
2023-04-04T15:48:48.058Z,1.50
2023-04-04T15:51:16.620Z,1.40
2023-04-04T15:53:45.118Z,1.27
2023-04-04T15:56:15.878Z,1.37
2023-04-04T15:58:45.101Z,1.37
2023-04-04T16:01:14.013Z,1.77
2023-04-04T16:03:44.150Z,1.40
2023-04-04T16:06:13.196Z,1.73
2023-04-04T16:08:41.953Z,1.53
2023-04-04T16:11:11.528Z,1.37
2023-04-04T16:13:41.822Z,1.87
2023-04-04T16:16:10.432Z,1.40
2023-04-04T16:18:39.160Z,1.70
2023-04-04T16:21:07.869Z,1.63
2023-04-04T16:23:36.903Z,1.77
2023-04-04T16:26:05.457Z,1.50
2023-04-04T16:28:34.474Z,1.40
2023-04-04T16:31:08.045Z,1.40
2023-04-04T16:33:36.761Z,1.70
2023-04-04T16:36:05.646Z,1.57
2023-04-04T16:38:34.610Z,1.47
2023-04-04T16:41:04.214Z,1.60
2023-04-04T16:43:34.671Z,1.37
2023-04-04T16:46:04.637Z,1.57
2023-04-04T16:48:33.031Z,1.40
2023-04-04T16:51:04.309Z,1.70
2023-04-04T16:53:33.804Z,1.60
2023-04-04T16:56:02.746Z,1.20
2023-04-04T16:58:31.430Z,1.60
2023-04-04T17:01:00.188Z,1.30
2023-04-04T17:03:30.073Z,1.80
2023-04-04T17:06:00.364Z,1.30
2023-04-04T17:08:30.797Z,1.60
2023-04-04T17:11:01.914Z,1.60
2023-04-04T17:13:31.432Z,1.47
2023-04-04T17:16:00.370Z,1.17
2023-04-04T17:18:30.450Z,1.60
2023-04-04T17:20:59.175Z,1.50
2023-04-04T17:23:27.487Z,1.50
2023-04-04T17:25:56.479Z,1.60
2023-04-04T17:28:25.432Z,1.50
2023-04-04T17:30:54.099Z,1.23
2023-04-04T17:33:26.826Z,1.33
2023-04-04T17:35:56.777Z,1.40
2023-04-04T17:38:26.551Z,1.50
2023-04-04T17:40:55.461Z,1.67
2023-04-04T17:43:24.650Z,1.33
2023-04-04T17:45:53.754Z,1.73
2023-04-04T17:48:22.612Z,1.43
2023-04-04T17:50:51.931Z,1.47
2023-04-04T17:53:22.547Z,1.27
2023-04-04T17:55:51.539Z,1.60
2023-04-04T17:58:20.064Z,1.60
2023-04-04T18:00:48.423Z,1.40
2023-04-04T18:03:19.456Z,1.20
2023-04-04T18:05:48.573Z,1.40
2023-04-04T18:08:18.203Z,1.60
2023-04-04T18:10:49.204Z,1.43
2023-04-04T18:13:18.313Z,1.43
2023-04-04T18:15:47.695Z,1.23
2023-04-04T18:18:17.218Z,1.50
2023-04-04T18:20:46.592Z,1.73
2023-04-04T18:23:18.555Z,1.50
2023-04-04T18:25:49.040Z,1.60
2023-04-04T18:28:19.345Z,1.43
2023-04-04T18:30:47.807Z,1.53
2023-04-04T18:33:17.520Z,1.60
2023-04-04T18:35:46.384Z,1.50
2023-04-04T18:38:15.273Z,1.50
2023-04-04T18:40:47.371Z,1.80
2023-04-04T18:43:16.462Z,1.40
2023-04-04T18:45:46.791Z,1.20
2023-04-04T18:48:15.507Z,1.20
2023-04-04T18:50:45.672Z,1.30
2023-04-04T18:53:18.687Z,1.30
2023-04-04T18:55:50.100Z,1.20
2023-04-04T18:58:19.752Z,1.10
2023-04-04T19:00:52.797Z,1.30
2023-04-04T19:03:21.768Z,1.50
2023-04-04T19:05:51.908Z,1.37
2023-04-04T19:08:21.737Z,1.70
2023-04-04T19:10:52.802Z,1.40
2023-04-04T19:13:21.523Z,1.40
2023-04-04T19:15:50.240Z,1.20
2023-04-04T19:18:19.394Z,1.60
2023-04-04T19:20:48.487Z,1.23
2023-04-04T19:23:16.923Z,1.50
2023-04-04T19:25:46.260Z,1.20
2023-04-04T19:28:16.982Z,1.50
2023-04-04T19:30:48.290Z,1.50
2023-04-04T19:33:20.253Z,1.43
2023-04-04T19:35:53.521Z,1.80
2023-04-04T19:38:25.027Z,1.33
2023-04-04T19:40:56.810Z,1.40
2023-04-04T19:43:28.275Z,1.40
2023-04-04T19:45:59.227Z,1.20
2023-04-04T19:48:43.930Z,1.40
2023-04-04T19:51:29.247Z,1.30
2023-04-04T19:53:59.002Z,1.60
2023-04-04T19:56:29.294Z,1.30
2023-04-04T19:59:01.871Z,1.20
2023-04-04T20:01:32.056Z,1.40
2023-04-04T20:04:07.533Z,1.17
2023-04-04T20:06:38.571Z,1.40
2023-04-04T20:09:12.462Z,1.27
2023-04-04T20:11:41.047Z,1.80
2023-04-04T20:14:11.359Z,1.70
2023-04-04T20:16:41.133Z,1.40
2023-04-04T20:19:10.029Z,1.40
2023-04-04T20:21:38.965Z,1.63
2023-04-04T20:24:09.671Z,1.50
2023-04-04T20:26:54.427Z,1.57
2023-04-04T20:29:29.825Z,1.30
2023-04-04T20:32:01.015Z,1.80
2023-04-04T20:34:42.820Z,1.67
2023-04-04T20:37:13.792Z,1.80
2023-04-04T20:39:46.881Z,1.40
2023-04-04T20:42:34.186Z,1.50
2023-04-04T20:45:34.210Z,2.00
2023-04-04T20:48:07.706Z,1.50
2023-04-04T20:50:54.622Z,1.70
2023-04-04T20:53:24.376Z,1.57
2023-04-04T20:55:53.344Z,1.43
2023-04-04T20:58:29.495Z,1.90
2023-04-04T21:01:02.071Z,1.63
2023-04-04T21:03:45.166Z,1.77
2023-04-04T21:06:16.904Z,1.50
2023-04-04T21:08:47.640Z,2.13
2023-04-04T21:11:24.609Z,1.90
2023-04-04T21:13:53.568Z,2.20
2023-04-04T21:16:26.545Z,1.87
2023-04-04T21:18:59.554Z,1.97
2023-04-04T21:21:31.853Z,1.90
2023-04-04T21:24:01.651Z,2.00
2023-04-04T21:26:34.736Z,1.90
2023-04-04T21:29:05.908Z,1.77
2023-04-04T21:31:41.373Z,1.53
2023-04-04T21:34:12.092Z,1.83
2023-04-04T21:36:45.669Z,2.23
2023-04-04T21:39:15.847Z,1.87
2023-04-04T21:41:45.402Z,1.80
2023-04-04T21:44:13.919Z,1.97
2023-04-04T21:46:43.920Z,1.87
2023-04-04T21:49:12.742Z,1.80
2023-04-04T21:51:41.376Z,1.70
2023-04-04T21:54:09.785Z,1.97
2023-04-04T21:56:38.512Z,2.00
2023-04-04T21:59:09.381Z,1.87
2023-04-04T22:01:41.180Z,1.63
2023-04-04T22:04:11.503Z,1.90
2023-04-04T22:06:42.844Z,2.57
2023-04-04T22:09:11.869Z,1.40
2023-04-04T22:11:44.223Z,1.97
2023-04-04T22:14:18.035Z,1.70
2023-04-04T22:16:47.107Z,1.50
2023-04-04T22:19:18.488Z,1.80
2023-04-04T22:21:48.583Z,1.93
2023-04-04T22:24:17.989Z,1.93
2023-04-04T22:26:46.947Z,2.00
2023-04-04T22:29:15.520Z,1.70
2023-04-04T22:31:44.211Z,1.60
2023-04-04T22:34:14.994Z,1.43
2023-04-04T22:36:45.541Z,1.90
2023-04-04T22:39:15.992Z,1.60
2023-04-04T22:41:45.901Z,2.03
2023-04-04T22:44:14.270Z,1.90
2023-04-04T22:46:42.902Z,2.00
2023-04-04T22:49:11.354Z,1.90
2023-04-04T22:51:45.753Z,2.00
2023-04-04T22:54:17.333Z,2.10
2023-04-04T22:56:46.172Z,2.00
2023-04-04T22:59:15.187Z,2.20
2023-04-04T23:01:43.630Z,2.10
2023-04-04T23:04:15.558Z,1.90
2023-04-04T23:06:45.734Z,2.50
2023-04-04T23:09:16.495Z,2.63
2023-04-04T23:11:45.054Z,2.10
2023-04-04T23:14:16.098Z,2.00
2023-04-04T23:16:45.666Z,2.43
2023-04-04T23:19:14.380Z,2.53
2023-04-04T23:21:43.969Z,2.00
2023-04-04T23:24:13.401Z,2.67
2023-04-04T23:26:45.965Z,2.40
2023-04-04T23:29:14.783Z,1.93
2023-04-04T23:31:45.481Z,2.50
2023-04-04T23:34:13.848Z,2.50
2023-04-04T23:36:42.321Z,2.50
2023-04-04T23:39:10.936Z,2.17
2023-04-04T23:41:39.493Z,2.20
2023-04-04T23:44:09.338Z,2.20
2023-04-04T23:46:37.930Z,2.00
2023-04-04T23:49:07.125Z,2.40
2023-04-04T23:51:38.481Z,1.70
2023-04-04T23:54:08.714Z,2.07
2023-04-04T23:56:38.961Z,1.90
2023-04-04T23:59:10.075Z,2.33
